createdAt,value
2018-09-30T00:01:51.000Z,27.9
2018-09-30T00:03:51.000Z,27.9
2018-09-30T00:05:51.000Z,27.9
2018-09-30T00:06:51.000Z,27.9
2018-09-30T00:08:51.000Z,28
2018-09-30T00:09:51.000Z,28
2018-09-30T00:11:51.000Z,28
2018-09-30T00:12:51.000Z,28.1
2018-09-30T00:14:51.000Z,28.1
2018-09-30T00:16:51.000Z,28
2018-09-30T00:17:51.000Z,28
2018-09-30T00:18:51.000Z,28
2018-09-30T00:20:51.000Z,28
2018-09-30T00:21:51.000Z,28.1
2018-09-30T00:23:36.000Z,28.1
2018-09-30T00:24:51.000Z,28.1
2018-09-30T00:26:51.000Z,28
2018-09-30T00:28:51.000Z,28
2018-09-30T00:30:51.000Z,27.9
2018-09-30T00:31:51.000Z,27.9
2018-09-30T00:33:51.000Z,27.9
2018-09-30T00:34:51.000Z,27.9
2018-09-30T00:36:51.000Z,27.9
2018-09-30T00:37:51.000Z,28
2018-09-30T00:38:51.000Z,28
2018-09-30T00:39:51.000Z,28.1
2018-09-30T00:41:36.000Z,28.1
2018-09-30T00:42:51.000Z,28.1
2018-09-30T00:44:51.000Z,28.1
2018-09-30T00:46:51.000Z,28
2018-09-30T00:48:51.000Z,27.9
2018-09-30T00:50:51.000Z,27.9
2018-09-30T00:51:51.000Z,27.9
2018-09-30T00:53:51.000Z,27.9
2018-09-30T00:54:51.000Z,28
2018-09-30T00:56:51.000Z,28
2018-09-30T00:58:51.000Z,28
2018-09-30T00:59:51.000Z,28
2018-09-30T01:00:51.000Z,28
2018-09-30T01:02:51.000Z,28.1
2018-09-30T01:03:51.000Z,28.1
2018-09-30T01:05:51.000Z,28.1
2018-09-30T01:06:51.000Z,28.1
2018-09-30T01:08:51.000Z,28.1
2018-09-30T01:09:51.000Z,28.1
2018-09-30T01:11:36.000Z,28.1
2018-09-30T01:12:51.000Z,28.1
2018-09-30T01:14:51.000Z,28
2018-09-30T01:15:51.000Z,28
2018-09-30T01:16:51.000Z,28
2018-09-30T01:18:51.000Z,28
2018-09-30T01:20:51.000Z,28
2018-09-30T01:22:51.000Z,27.9
2018-09-30T01:23:51.000Z,27.9
2018-09-30T01:24:51.000Z,27.9
2018-09-30T01:26:51.000Z,28
2018-09-30T01:27:51.000Z,28
2018-09-30T01:29:36.000Z,28
2018-09-30T01:30:51.000Z,28
2018-09-30T01:31:51.000Z,28
2018-09-30T01:33:51.000Z,28
2018-09-30T01:35:51.000Z,27.9
2018-09-30T01:37:51.000Z,27.8
2018-09-30T01:38:51.000Z,27.8
2018-09-30T01:40:51.000Z,27.8
2018-09-30T01:42:51.000Z,27.7
2018-09-30T01:43:51.000Z,27.7
2018-09-30T01:44:51.000Z,27.8
2018-09-30T01:46:51.000Z,27.8
2018-09-30T01:48:51.000Z,27.8
2018-09-30T01:50:51.000Z,27.8
2018-09-30T01:52:51.000Z,27.7
2018-09-30T01:53:51.000Z,27.7
2018-09-30T01:55:51.000Z,27.7
2018-09-30T01:57:51.000Z,27.7
2018-09-30T01:58:51.000Z,27.7
2018-09-30T01:59:51.000Z,27.8
2018-09-30T02:01:36.000Z,27.9
2018-09-30T02:02:51.000Z,27.8
2018-09-30T02:03:51.000Z,27.9
2018-09-30T02:04:51.000Z,27.9
2018-09-30T02:06:36.000Z,28
2018-09-30T02:07:51.000Z,27.9
2018-09-30T02:09:51.000Z,27.9
2018-09-30T02:11:51.000Z,27.8
2018-09-30T02:13:51.000Z,27.7
2018-09-30T02:14:51.000Z,27.6
2018-09-30T02:16:51.000Z,27.7
2018-09-30T02:17:51.000Z,27.7
2018-09-30T02:18:51.000Z,27.8
2018-09-30T02:20:51.000Z,27.8
2018-09-30T02:21:51.000Z,27.9
2018-09-30T02:23:51.000Z,27.9
2018-09-30T02:24:51.000Z,27.9
2018-09-30T02:25:51.000Z,27.9
2018-09-30T02:27:51.000Z,27.9
2018-09-30T02:28:51.000Z,27.9
2018-09-30T02:30:51.000Z,27.9
2018-09-30T02:32:51.000Z,27.9
2018-09-30T02:34:51.000Z,27.8
2018-09-30T02:35:51.000Z,27.8
2018-09-30T02:36:51.000Z,27.8
2018-09-30T02:37:51.000Z,27.9
2018-09-30T02:38:51.000Z,27.9
2018-09-30T02:40:51.000Z,27.9
2018-09-30T02:42:51.000Z,27.8
2018-09-30T02:43:51.000Z,27.8
2018-09-30T02:45:51.000Z,27.8
2018-09-30T02:46:51.000Z,27.8
2018-09-30T02:47:51.000Z,27.8
2018-09-30T02:49:51.000Z,27.9
2018-09-30T02:50:51.000Z,27.9
2018-09-30T02:52:51.000Z,27.9
2018-09-30T02:54:51.000Z,27.8
2018-09-30T02:56:51.000Z,27.8
2018-09-30T02:58:51.000Z,27.7
2018-09-30T03:00:51.000Z,27.6
2018-09-30T03:02:36.000Z,27.6
2018-09-30T03:03:51.000Z,27.6
2018-09-30T03:04:51.000Z,27.6
2018-09-30T03:06:51.000Z,27.6
2018-09-30T03:08:51.000Z,27.6
2018-09-30T03:09:51.000Z,27.6
2018-09-30T03:11:51.000Z,27.6
2018-09-30T03:12:51.000Z,27.6
2018-09-30T03:14:51.000Z,27.7
2018-09-30T03:15:51.000Z,27.7
2018-09-30T03:16:51.000Z,27.8
2018-09-30T03:18:51.000Z,27.8
2018-09-30T03:20:51.000Z,27.8
2018-09-30T03:21:51.000Z,27.8
2018-09-30T03:23:51.000Z,27.8
2018-09-30T03:25:51.000Z,27.7
2018-09-30T03:26:51.000Z,27.7
2018-09-30T03:27:51.000Z,27.7
2018-09-30T03:29:51.000Z,27.7
2018-09-30T03:30:51.000Z,27.7
2018-09-30T03:32:51.000Z,27.7
2018-09-30T03:33:51.000Z,27.7
2018-09-30T03:35:51.000Z,27.8
2018-09-30T03:36:51.000Z,27.8
2018-09-30T03:38:51.000Z,27.8
2018-09-30T03:39:51.000Z,27.8
2018-09-30T03:40:51.000Z,27.9
2018-09-30T03:42:51.000Z,27.9
2018-09-30T03:44:51.000Z,27.9
2018-09-30T03:46:51.000Z,27.8
2018-09-30T03:47:51.000Z,27.7
2018-09-30T03:48:51.000Z,27.8
2018-09-30T03:49:51.000Z,27.8
2018-09-30T03:51:51.000Z,27.7
2018-09-30T03:53:51.000Z,27.6
2018-09-30T03:54:51.000Z,27.6
2018-09-30T03:56:51.000Z,27.7
2018-09-30T03:57:51.000Z,27.7
2018-09-30T03:58:51.000Z,27.8
2018-09-30T04:00:36.000Z,27.9
2018-09-30T04:01:51.000Z,27.8
2018-09-30T04:02:51.000Z,27.8
2018-09-30T04:04:51.000Z,27.8
2018-09-30T04:05:51.000Z,27.8
2018-09-30T04:07:51.000Z,27.8
2018-09-30T04:09:51.000Z,27.8
2018-09-30T04:11:51.000Z,27.8
2018-09-30T04:12:51.000Z,27.7
2018-09-30T04:14:51.000Z,27.8
2018-09-30T04:15:51.000Z,27.8
2018-09-30T04:16:51.000Z,27.8
2018-09-30T04:18:51.000Z,27.9
2018-09-30T04:20:51.000Z,27.8
2018-09-30T04:21:51.000Z,27.8
2018-09-30T04:23:51.000Z,27.7
2018-09-30T04:24:51.000Z,27.7
2018-09-30T04:25:51.000Z,27.7
2018-09-30T04:26:51.000Z,27.8
2018-09-30T04:28:36.000Z,27.8
2018-09-30T04:29:51.000Z,27.8
2018-09-30T04:31:51.000Z,27.8
2018-09-30T04:32:51.000Z,27.8
2018-09-30T04:33:51.000Z,27.8
2018-09-30T04:35:51.000Z,27.8
2018-09-30T04:37:51.000Z,27.7
2018-09-30T04:39:51.000Z,27.6
2018-09-30T04:41:51.000Z,27.6
2018-09-30T04:42:51.000Z,27.6
2018-09-30T04:44:51.000Z,27.5
2018-09-30T04:45:51.000Z,27.5
2018-09-30T04:47:51.000Z,27.6
2018-09-30T04:49:51.000Z,27.6
2018-09-30T04:51:36.000Z,27.5
2018-09-30T04:52:51.000Z,27.5
2018-09-30T04:53:51.000Z,27.5
2018-09-30T04:54:51.000Z,27.5
2018-09-30T04:56:51.000Z,27.6
2018-09-30T04:57:51.000Z,27.6
2018-09-30T04:59:51.000Z,27.6
2018-09-30T05:00:51.000Z,27.6
2018-09-30T05:02:51.000Z,27.7
2018-09-30T05:04:51.000Z,27.6
2018-09-30T05:06:51.000Z,27.5
2018-09-30T05:07:51.000Z,27.5
2018-09-30T05:09:51.000Z,27.6
2018-09-30T05:10:51.000Z,27.6
2018-09-30T05:12:51.000Z,27.6
2018-09-30T05:14:51.000Z,27.6
2018-09-30T05:15:51.000Z,27.6
2018-09-30T05:17:51.000Z,27.6
2018-09-30T05:19:51.000Z,27.5
2018-09-30T05:20:52.000Z,27.5
2018-09-30T05:22:52.000Z,27.6
2018-09-30T05:24:52.000Z,27.6
2018-09-30T05:25:52.000Z,27.6
2018-09-30T05:26:52.000Z,27.6
2018-09-30T05:27:52.000Z,27.7
2018-09-30T05:28:52.000Z,27.7
2018-09-30T05:30:37.000Z,27.8
2018-09-30T05:31:52.000Z,27.8
2018-09-30T05:32:52.000Z,27.7
2018-09-30T05:34:52.000Z,27.7
2018-09-30T05:35:52.000Z,27.7
2018-09-30T05:37:52.000Z,27.7
2018-09-30T05:38:52.000Z,27.7
2018-09-30T05:40:52.000Z,27.8
2018-09-30T05:41:52.000Z,27.7
2018-09-30T05:43:52.000Z,27.7
2018-09-30T05:44:52.000Z,27.7
2018-09-30T05:46:37.000Z,27.8
2018-09-30T05:47:52.000Z,27.7
2018-09-30T05:48:52.000Z,27.7
2018-09-30T05:49:52.000Z,27.7
2018-09-30T05:51:37.000Z,27.7
2018-09-30T05:52:52.000Z,27.6
2018-09-30T05:53:52.000Z,27.6
2018-09-30T05:55:52.000Z,27.6
2018-09-30T05:56:52.000Z,27.6
2018-09-30T05:57:52.000Z,27.7
2018-09-30T05:59:52.000Z,27.8
2018-09-30T06:01:52.000Z,27.7
2018-09-30T06:03:52.000Z,27.7
2018-09-30T06:05:52.000Z,27.6
2018-09-30T06:06:52.000Z,27.6
2018-09-30T06:07:52.000Z,27.7
2018-09-30T06:09:37.000Z,27.7
2018-09-30T06:10:52.000Z,27.7
2018-09-30T06:11:52.000Z,27.7
2018-09-30T06:13:52.000Z,27.8
2018-09-30T06:14:52.000Z,27.8
2018-09-30T06:16:52.000Z,27.9
2018-09-30T06:18:52.000Z,27.9
2018-09-30T06:20:52.000Z,27.9
2018-09-30T06:22:52.000Z,27.8
2018-09-30T06:23:51.000Z,27.8
2018-09-30T06:24:51.000Z,27.8
2018-09-30T06:26:51.000Z,27.8
2018-09-30T06:28:51.000Z,27.9
2018-09-30T06:29:51.000Z,27.9
2018-09-30T06:31:51.000Z,28
2018-09-30T06:32:51.000Z,28
2018-09-30T06:34:51.000Z,28.1
2018-09-30T06:36:51.000Z,28.1
2018-09-30T06:37:51.000Z,28.1
2018-09-30T06:38:51.000Z,28.2
2018-09-30T06:40:51.000Z,28.3
2018-09-30T06:42:51.000Z,28.4
2018-09-30T06:44:51.000Z,28.4
2018-09-30T06:46:51.000Z,28.4
2018-09-30T06:48:51.000Z,28.4
2018-09-30T06:50:51.000Z,28.5
2018-09-30T06:51:51.000Z,28.5
2018-09-30T06:52:51.000Z,28.5
2018-09-30T06:54:51.000Z,28.6
2018-09-30T06:55:51.000Z,28.7
2018-09-30T06:56:51.000Z,28.8
2018-09-30T06:58:36.000Z,28.9
2018-09-30T06:59:51.000Z,28.9
2018-09-30T07:00:51.000Z,28.9
2018-09-30T07:01:51.000Z,28.9
2018-09-30T07:03:51.000Z,29
2018-09-30T07:05:51.000Z,29
2018-09-30T07:06:51.000Z,29
2018-09-30T07:07:51.000Z,29
2018-09-30T07:08:51.000Z,29.1
2018-09-30T07:09:51.000Z,29.2
2018-09-30T07:10:51.000Z,29.2
2018-09-30T07:12:51.000Z,29.3
2018-09-30T07:13:51.000Z,29.3
2018-09-30T07:14:51.000Z,29.4
2018-09-30T07:16:36.000Z,29.4
2018-09-30T07:17:51.000Z,29.5
2018-09-30T07:19:51.000Z,29.5
2018-09-30T07:21:51.000Z,29.6
2018-09-30T07:23:51.000Z,29.8
2018-09-30T07:25:51.000Z,29.9
2018-09-30T07:26:51.000Z,30
2018-09-30T07:28:51.000Z,30.2
2018-09-30T07:29:51.000Z,30.3
2018-09-30T07:31:51.000Z,30.5
2018-09-30T07:33:51.000Z,30.7
2018-09-30T07:34:51.000Z,30.8
2018-09-30T07:36:51.000Z,31
2018-09-30T07:37:51.000Z,31.1
2018-09-30T07:39:36.000Z,31.3
2018-09-30T07:40:51.000Z,31.4
2018-09-30T07:42:51.000Z,31.5
2018-09-30T07:44:51.000Z,31.6
2018-09-30T07:45:51.000Z,31.7
2018-09-30T07:46:51.000Z,31.8
2018-09-30T07:47:51.000Z,31.9
2018-09-30T07:49:51.000Z,32.1
2018-09-30T07:50:51.000Z,32.2
2018-09-30T07:51:51.000Z,32.3
2018-09-30T07:53:36.000Z,32.5
2018-09-30T07:54:51.000Z,32.5
2018-09-30T07:55:51.000Z,32.4
2018-09-30T07:57:51.000Z,31.9
2018-09-30T07:59:51.000Z,31.3
2018-09-30T08:01:51.000Z,30.9
2018-09-30T08:02:51.000Z,30.7
2018-09-30T08:03:51.000Z,30.6
2018-09-30T08:04:51.000Z,30.6
2018-09-30T08:05:51.000Z,30.5
2018-09-30T08:07:51.000Z,30.3
2018-09-30T08:09:51.000Z,30.1
2018-09-30T08:11:51.000Z,29.9
2018-09-30T08:13:51.000Z,29.8
2018-09-30T08:15:51.000Z,29.7
2018-09-30T08:16:51.000Z,29.7
2018-09-30T08:18:51.000Z,29.6
2018-09-30T08:20:51.000Z,29.6
2018-09-30T08:21:51.000Z,29.5
2018-09-30T08:23:51.000Z,29.5
2018-09-30T08:25:51.000Z,29.4
2018-09-30T08:26:51.000Z,29.4
2018-09-30T08:28:51.000Z,29.4
2018-09-30T08:29:51.000Z,29.4
2018-09-30T08:31:51.000Z,29.4
2018-09-30T08:32:51.000Z,29.4
2018-09-30T08:34:51.000Z,29.4
2018-09-30T08:35:51.000Z,29.4
2018-09-30T08:36:51.000Z,29.4
2018-09-30T08:38:36.000Z,29.4
2018-09-30T08:39:51.000Z,29.3
2018-09-30T08:41:51.000Z,29.2
2018-09-30T08:43:51.000Z,29.2
2018-09-30T08:44:51.000Z,29.1
2018-09-30T08:46:51.000Z,29.1
2018-09-30T08:48:51.000Z,29
2018-09-30T08:49:51.000Z,29
2018-09-30T08:50:51.000Z,29
2018-09-30T08:51:51.000Z,29
2018-09-30T08:52:51.000Z,29
2018-09-30T08:53:51.000Z,29.1
2018-09-30T08:55:51.000Z,29.1
2018-09-30T08:57:51.000Z,29
2018-09-30T08:58:51.000Z,29
2018-09-30T09:00:51.000Z,29.1
2018-09-30T09:01:51.000Z,29.1
2018-09-30T09:03:51.000Z,29.1
2018-09-30T09:05:51.000Z,29.1
2018-09-30T09:06:51.000Z,29.1
2018-09-30T09:07:51.000Z,29.1
2018-09-30T09:08:51.000Z,29.2
2018-09-30T09:10:51.000Z,29.2
2018-09-30T09:11:51.000Z,29.2
2018-09-30T09:13:51.000Z,29.2
2018-09-30T09:15:51.000Z,29.2
2018-09-30T09:16:51.000Z,29.1
2018-09-30T09:18:51.000Z,29.1
2018-09-30T09:20:51.000Z,29.1
2018-09-30T09:21:51.000Z,29.1
2018-09-30T09:23:51.000Z,29.1
2018-09-30T09:25:36.000Z,29
2018-09-30T09:26:51.000Z,29
2018-09-30T09:27:51.000Z,29
2018-09-30T09:28:51.000Z,29
2018-09-30T09:30:51.000Z,29
2018-09-30T09:32:51.000Z,28.9
2018-09-30T09:33:51.000Z,28.9
2018-09-30T09:35:51.000Z,28.9
2018-09-30T09:37:51.000Z,28.9
2018-09-30T09:39:51.000Z,28.8
2018-09-30T09:41:51.000Z,28.8
2018-09-30T09:43:51.000Z,28.7
2018-09-30T09:44:51.000Z,28.7
2018-09-30T09:46:51.000Z,28.8
2018-09-30T09:48:51.000Z,28.8
2018-09-30T09:49:51.000Z,28.8
2018-09-30T09:51:51.000Z,28.9
2018-09-30T09:53:51.000Z,28.8
2018-09-30T09:55:51.000Z,28.8
2018-09-30T09:56:51.000Z,28.8
2018-09-30T09:57:51.000Z,28.8
2018-09-30T09:58:51.000Z,28.9
2018-09-30T10:00:51.000Z,28.9
2018-09-30T10:02:36.000Z,28.9
2018-09-30T10:03:51.000Z,28.9
2018-09-30T10:04:51.000Z,28.9
2018-09-30T10:06:51.000Z,28.9
2018-09-30T10:08:51.000Z,28.9
2018-09-30T10:10:51.000Z,28.8
2018-09-30T10:11:51.000Z,28.8
2018-09-30T10:13:51.000Z,28.9
2018-09-30T10:15:51.000Z,28.9
2018-09-30T10:17:51.000Z,28.9
2018-09-30T10:19:36.000Z,28.8
2018-09-30T10:20:51.000Z,28.8
2018-09-30T10:22:51.000Z,28.7
2018-09-30T10:23:51.000Z,28.7
2018-09-30T10:25:51.000Z,28.8
2018-09-30T10:27:51.000Z,28.7
2018-09-30T10:28:51.000Z,28.7
2018-09-30T10:29:51.000Z,28.8
2018-09-30T10:31:51.000Z,28.9
2018-09-30T10:33:51.000Z,28.9
2018-09-30T10:34:51.000Z,28.9
2018-09-30T10:35:51.000Z,29
2018-09-30T10:37:51.000Z,29
2018-09-30T10:39:36.000Z,29
2018-09-30T10:40:52.000Z,29
2018-09-30T10:41:52.000Z,29
2018-09-30T10:42:52.000Z,29
2018-09-30T10:44:52.000Z,29.1
2018-09-30T10:46:52.000Z,29
2018-09-30T10:47:52.000Z,29
2018-09-30T10:49:52.000Z,29
2018-09-30T10:50:52.000Z,29
2018-09-30T10:52:52.000Z,29.1
2018-09-30T10:53:52.000Z,29.1
2018-09-30T10:55:52.000Z,29.1
2018-09-30T10:56:52.000Z,29.1
2018-09-30T10:57:52.000Z,29.1
2018-09-30T10:58:52.000Z,29.1
2018-09-30T11:00:52.000Z,29.1
2018-09-30T11:02:52.000Z,29
2018-09-30T11:03:52.000Z,29
2018-09-30T11:04:52.000Z,29
2018-09-30T11:05:52.000Z,29
2018-09-30T11:07:52.000Z,29.1
2018-09-30T11:09:52.000Z,29.1
2018-09-30T11:10:52.000Z,29.1
2018-09-30T11:12:52.000Z,29.1
2018-09-30T11:14:52.000Z,29
2018-09-30T11:15:52.000Z,29
2018-09-30T11:16:52.000Z,29
2018-09-30T11:18:52.000Z,29.1
2018-09-30T11:20:52.000Z,29.1
2018-09-30T11:22:52.000Z,29
2018-09-30T11:23:52.000Z,29
2018-09-30T11:25:52.000Z,29
2018-09-30T11:26:52.000Z,29
2018-09-30T11:28:52.000Z,29
2018-09-30T11:29:52.000Z,29
2018-09-30T11:31:52.000Z,29.1
2018-09-30T11:32:52.000Z,29.1
2018-09-30T11:34:52.000Z,29.1
2018-09-30T11:36:52.000Z,29
2018-09-30T11:37:52.000Z,29
2018-09-30T11:39:52.000Z,29
2018-09-30T11:40:52.000Z,29
2018-09-30T11:42:51.000Z,29
2018-09-30T11:43:51.000Z,29
2018-09-30T11:44:51.000Z,29
2018-09-30T11:46:51.000Z,29
2018-09-30T11:47:51.000Z,29
2018-09-30T11:48:51.000Z,29
2018-09-30T11:50:51.000Z,29.1
2018-09-30T11:52:51.000Z,29
2018-09-30T11:53:51.000Z,29
2018-09-30T11:54:51.000Z,29.1
2018-09-30T11:56:36.000Z,29.1
2018-09-30T11:57:51.000Z,29.1
2018-09-30T11:59:51.000Z,29
2018-09-30T12:00:51.000Z,29
2018-09-30T12:02:51.000Z,29
2018-09-30T12:03:51.000Z,29
2018-09-30T12:05:51.000Z,29
2018-09-30T12:06:51.000Z,29
2018-09-30T12:08:51.000Z,29
2018-09-30T12:10:51.000Z,28.9
2018-09-30T12:12:51.000Z,28.9
2018-09-30T12:14:51.000Z,28.8
2018-09-30T12:16:51.000Z,28.7
2018-09-30T12:17:51.000Z,28.8
2018-09-30T12:19:51.000Z,28.8
2018-09-30T12:21:36.000Z,28.9
2018-09-30T12:22:51.000Z,28.8
2018-09-30T12:24:51.000Z,28.9
2018-09-30T12:25:51.000Z,28.9
2018-09-30T12:26:51.000Z,28.9
2018-09-30T12:28:51.000Z,29
2018-09-30T12:30:51.000Z,29
2018-09-30T12:32:51.000Z,29
2018-09-30T12:33:51.000Z,29
2018-09-30T12:35:36.000Z,29
2018-09-30T12:36:51.000Z,29
2018-09-30T12:38:51.000Z,29
2018-09-30T12:39:51.000Z,29
2018-09-30T12:41:51.000Z,29
2018-09-30T12:42:51.000Z,29
2018-09-30T12:43:51.000Z,29.1
2018-09-30T12:45:51.000Z,29.1
2018-09-30T12:46:51.000Z,29.1
2018-09-30T12:48:51.000Z,29.2
2018-09-30T12:50:51.000Z,29.1
2018-09-30T12:52:36.000Z,29.1
2018-09-30T12:53:51.000Z,29
2018-09-30T12:55:51.000Z,29
2018-09-30T12:57:51.000Z,29
2018-09-30T12:59:51.000Z,29
2018-09-30T13:00:51.000Z,29
2018-09-30T13:01:51.000Z,29.1
2018-09-30T13:03:51.000Z,29.2
2018-09-30T13:05:51.000Z,29.2
2018-09-30T13:07:51.000Z,29.2
2018-09-30T13:08:51.000Z,29.2
2018-09-30T13:10:51.000Z,29.2
2018-09-30T13:12:51.000Z,29.1
2018-09-30T13:13:51.000Z,29.1
2018-09-30T13:15:51.000Z,29.1
2018-09-30T13:16:51.000Z,29.2
2018-09-30T13:17:51.000Z,29.2
2018-09-30T13:19:51.000Z,29.2
2018-09-30T13:21:51.000Z,29.2
2018-09-30T13:22:51.000Z,29.2
2018-09-30T13:24:51.000Z,29.2
2018-09-30T13:26:51.000Z,29.2
2018-09-30T13:27:51.000Z,29.2
2018-09-30T13:29:51.000Z,29.2
2018-09-30T13:31:51.000Z,29.2
2018-09-30T13:32:51.000Z,29.2
2018-09-30T13:34:51.000Z,29.3
2018-09-30T13:35:51.000Z,29.3
2018-09-30T13:36:51.000Z,29.3
2018-09-30T13:37:51.000Z,29.4
2018-09-30T13:39:51.000Z,29.4
2018-09-30T13:41:51.000Z,29.5
2018-09-30T13:43:51.000Z,29.7
2018-09-30T13:45:51.000Z,29.9
2018-09-30T13:47:51.000Z,30.2
2018-09-30T13:48:51.000Z,30.3
2018-09-30T13:50:51.000Z,30.4
2018-09-30T13:51:51.000Z,30.4
2018-09-30T13:53:51.000Z,30.4
2018-09-30T13:55:51.000Z,30.2
2018-09-30T13:56:51.000Z,30.2
2018-09-30T13:58:51.000Z,30
2018-09-30T14:00:51.000Z,29.9
2018-09-30T14:01:51.000Z,29.9
2018-09-30T14:03:51.000Z,29.8
2018-09-30T14:04:51.000Z,29.8
2018-09-30T14:06:51.000Z,29.8
2018-09-30T14:07:51.000Z,29.8
2018-09-30T14:09:51.000Z,29.7
2018-09-30T14:10:51.000Z,29.7
2018-09-30T14:12:51.000Z,29.7
2018-09-30T14:14:51.000Z,29.5
2018-09-30T14:16:51.000Z,29.4
2018-09-30T14:17:51.000Z,29.3
2018-09-30T14:19:51.000Z,29.3
2018-09-30T14:20:51.000Z,29.3
2018-09-30T14:21:51.000Z,29.4
2018-09-30T14:22:51.000Z,29.5
2018-09-30T14:23:51.000Z,29.5
2018-09-30T14:24:51.000Z,29.6
2018-09-30T14:25:51.000Z,29.6
2018-09-30T14:26:51.000Z,29.6
2018-09-30T14:28:51.000Z,29.6
2018-09-30T14:30:51.000Z,29.5
2018-09-30T14:31:51.000Z,29.5
2018-09-30T14:32:51.000Z,29.5
2018-09-30T14:34:36.000Z,29.5
2018-09-30T14:35:51.000Z,29.4
2018-09-30T14:37:51.000Z,29.4
2018-09-30T14:38:51.000Z,29.4
2018-09-30T14:40:36.000Z,29.4
2018-09-30T14:41:51.000Z,29.3
2018-09-30T14:43:51.000Z,29.3
2018-09-30T14:46:51.000Z,29.3
2018-09-30T14:47:51.000Z,29.3
2018-09-30T14:48:51.000Z,29.3
2018-09-30T14:50:51.000Z,29.3
2018-09-30T14:51:51.000Z,29.3
2018-09-30T14:53:52.000Z,29.3
2018-09-30T14:55:52.000Z,29.3
2018-09-30T14:56:52.000Z,29.3
2018-09-30T14:58:52.000Z,29.2
2018-09-30T15:00:52.000Z,29.2
2018-09-30T15:02:52.000Z,29.1
2018-09-30T15:04:52.000Z,29.1
2018-09-30T15:06:52.000Z,29
2018-09-30T15:07:52.000Z,29
2018-09-30T15:09:52.000Z,29.1
2018-09-30T15:11:52.000Z,29
2018-09-30T15:12:52.000Z,29
2018-09-30T15:14:52.000Z,29.1
2018-09-30T15:15:52.000Z,29.1
2018-09-30T15:16:52.000Z,29.1
2018-09-30T15:17:52.000Z,29.2
2018-09-30T15:18:52.000Z,29.2
2018-09-30T15:20:52.000Z,29.1
2018-09-30T15:21:52.000Z,29.1
2018-09-30T15:22:52.000Z,29.1
2018-09-30T15:23:52.000Z,29.2
2018-09-30T15:25:52.000Z,29.1
2018-09-30T15:26:52.000Z,29.1
2018-09-30T15:27:52.000Z,29.2
2018-09-30T15:29:52.000Z,29.2
2018-09-30T15:31:52.000Z,29.1
2018-09-30T15:33:52.000Z,28.9
2018-09-30T15:34:52.000Z,28.9
2018-09-30T15:36:52.000Z,28.9
2018-09-30T15:37:52.000Z,28.9
2018-09-30T15:39:52.000Z,29
2018-09-30T15:41:52.000Z,29
2018-09-30T15:43:52.000Z,28.9
2018-09-30T15:45:52.000Z,28.8
2018-09-30T15:47:52.000Z,28.8
2018-09-30T15:49:52.000Z,28.7
2018-09-30T15:50:52.000Z,28.8
2018-09-30T15:52:52.000Z,28.8
2018-09-30T15:53:52.000Z,28.8
2018-09-30T15:55:52.000Z,28.8
2018-09-30T15:57:37.000Z,28.8
2018-09-30T15:58:52.000Z,28.8
2018-09-30T16:00:52.000Z,28.7
2018-09-30T16:01:52.000Z,28.7
2018-09-30T16:03:52.000Z,28.8
2018-09-30T16:04:52.000Z,28.8
2018-09-30T16:06:52.000Z,28.8
2018-09-30T16:07:52.000Z,28.9
2018-09-30T16:09:52.000Z,28.8
2018-09-30T16:11:52.000Z,28.8
2018-09-30T16:13:52.000Z,28.7
2018-09-30T16:15:52.000Z,28.7
2018-09-30T16:16:52.000Z,28.7
2018-09-30T16:18:52.000Z,28.8
2018-09-30T16:20:52.000Z,28.8
2018-09-30T16:22:52.000Z,28.7
2018-09-30T16:24:52.000Z,28.7
2018-09-30T16:25:52.000Z,28.7
2018-09-30T16:27:52.000Z,28.8
2018-09-30T16:29:37.000Z,28.8
2018-09-30T16:30:52.000Z,28.7
2018-09-30T16:31:52.000Z,28.7
2018-09-30T16:32:52.000Z,28.8
2018-09-30T16:34:52.000Z,28.8
2018-09-30T16:36:52.000Z,28.7
2018-09-30T16:37:52.000Z,28.7
2018-09-30T16:39:52.000Z,28.8
2018-09-30T16:40:52.000Z,28.8
2018-09-30T16:42:52.000Z,28.9
2018-09-30T16:43:52.000Z,28.9
2018-09-30T16:45:52.000Z,28.9
2018-09-30T16:47:52.000Z,28.9
2018-09-30T16:49:37.000Z,28.8
2018-09-30T16:50:52.000Z,28.8
2018-09-30T16:51:52.000Z,28.8
2018-09-30T16:52:52.000Z,28.8
2018-09-30T16:53:52.000Z,28.9
2018-09-30T16:54:52.000Z,28.9
2018-09-30T16:56:52.000Z,28.9
2018-09-30T16:58:52.000Z,28.8
2018-09-30T17:00:51.000Z,28.8
2018-09-30T17:01:51.000Z,28.7
2018-09-30T17:02:51.000Z,28.8
2018-09-30T17:04:36.000Z,28.8
2018-09-30T17:05:51.000Z,28.7
2018-09-30T17:06:51.000Z,28.7
2018-09-30T17:07:51.000Z,28.8
2018-09-30T17:09:51.000Z,28.8
2018-09-30T17:10:51.000Z,28.9
2018-09-30T17:12:51.000Z,28.8
2018-09-30T17:14:51.000Z,28.7
2018-09-30T17:15:51.000Z,28.7
2018-09-30T17:16:51.000Z,28.7
2018-09-30T17:17:51.000Z,28.8
2018-09-30T17:19:51.000Z,28.9
2018-09-30T17:21:51.000Z,28.8
2018-09-30T17:23:51.000Z,28.7
2018-09-30T17:25:51.000Z,28.6
2018-09-30T17:27:51.000Z,28.5
2018-09-30T17:29:51.000Z,28.4
2018-09-30T17:30:51.000Z,28.4
2018-09-30T17:32:51.000Z,28.5
2018-09-30T17:33:51.000Z,28.5
2018-09-30T17:34:51.000Z,28.6
2018-09-30T17:36:51.000Z,28.6
2018-09-30T17:38:51.000Z,28.6
2018-09-30T17:39:51.000Z,28.5
2018-09-30T17:41:51.000Z,28.5
2018-09-30T17:43:51.000Z,28.5
2018-09-30T17:44:51.000Z,28.5
2018-09-30T17:45:51.000Z,28.5
2018-09-30T17:46:51.000Z,28.6
2018-09-30T17:48:51.000Z,28.6
2018-09-30T17:50:51.000Z,28.5
2018-09-30T17:52:51.000Z,28.5
2018-09-30T17:54:51.000Z,28.4
2018-09-30T17:56:36.000Z,28.4
2018-09-30T17:57:51.000Z,28.4
2018-09-30T17:59:51.000Z,28.4
2018-09-30T18:01:51.000Z,28.4
2018-09-30T18:03:37.000Z,28.4
2018-09-30T18:04:52.000Z,28.3
2018-09-30T18:06:52.000Z,28.4
2018-09-30T18:07:52.000Z,28.4
2018-09-30T18:08:52.000Z,28.4
2018-09-30T18:10:52.000Z,28.5
2018-09-30T18:12:52.000Z,28.4
2018-09-30T18:13:52.000Z,28.4
2018-09-30T18:15:52.000Z,28.5
2018-09-30T18:17:52.000Z,28.5
2018-09-30T18:19:52.000Z,28.4
2018-09-30T18:20:52.000Z,28.3
2018-09-30T18:22:52.000Z,28.3
2018-09-30T18:24:52.000Z,28.3
2018-09-30T18:26:52.000Z,28.3
2018-09-30T18:28:52.000Z,28.3
2018-09-30T18:30:37.000Z,28.3
2018-09-30T18:31:52.000Z,28.3
2018-09-30T18:33:37.000Z,28.3
2018-09-30T18:34:52.000Z,28.3
2018-09-30T18:36:52.000Z,28.2
2018-09-30T18:38:52.000Z,28.2
2018-09-30T18:40:52.000Z,28.2
2018-09-30T18:42:52.000Z,28.2
2018-09-30T18:44:52.000Z,28.2
2018-09-30T18:45:52.000Z,28.2
2018-09-30T18:47:52.000Z,28.3
2018-09-30T18:49:52.000Z,28.3
2018-09-30T18:51:52.000Z,28.2
2018-09-30T18:53:52.000Z,28
2018-09-30T18:55:52.000Z,28
2018-09-30T18:56:52.000Z,28
2018-09-30T18:58:52.000Z,28.1
2018-09-30T18:59:52.000Z,28.1
2018-09-30T19:01:52.000Z,28.2
2018-09-30T19:03:52.000Z,28.2
2018-09-30T19:05:52.000Z,28.2
2018-09-30T19:07:36.000Z,28.2
2018-09-30T19:08:51.000Z,28.2
2018-09-30T19:10:51.000Z,28.1
2018-09-30T19:11:51.000Z,28.1
2018-09-30T19:12:51.000Z,28.2
2018-09-30T19:13:51.000Z,28.2
2018-09-30T19:15:51.000Z,28.3
2018-09-30T19:17:51.000Z,28.2
2018-09-30T19:18:51.000Z,28.2
2018-09-30T19:20:51.000Z,28.2
2018-09-30T19:22:51.000Z,28.2
2018-09-30T19:23:51.000Z,28.2
2018-09-30T19:25:51.000Z,28.2
2018-09-30T19:27:51.000Z,28.2
2018-09-30T19:28:51.000Z,28.2
2018-09-30T19:30:51.000Z,28.2
2018-09-30T19:32:51.000Z,28.2
2018-09-30T19:34:51.000Z,28.2
2018-09-30T19:36:51.000Z,28.1
2018-09-30T19:38:51.000Z,28.1
2018-09-30T19:40:51.000Z,28.1
2018-09-30T19:42:51.000Z,28.1
2018-09-30T19:44:36.000Z,28.1
2018-09-30T19:45:51.000Z,28.1
2018-09-30T19:47:51.000Z,28.1
2018-09-30T19:49:51.000Z,28.1
2018-09-30T19:51:51.000Z,28.1
2018-09-30T19:52:51.000Z,28.1
2018-09-30T19:54:51.000Z,28.1
2018-09-30T19:55:51.000Z,28.1
2018-09-30T19:56:51.000Z,28.2
2018-09-30T19:58:51.000Z,28.2
2018-09-30T19:59:51.000Z,28.2
2018-09-30T20:00:51.000Z,28.2
2018-09-30T20:02:51.000Z,28.3
2018-09-30T20:04:51.000Z,28.2
2018-09-30T20:06:51.000Z,28.2
2018-09-30T20:07:51.000Z,28.2
2018-09-30T20:09:51.000Z,28.2
2018-09-30T20:10:51.000Z,28.2
2018-09-30T20:12:52.000Z,28.3
2018-09-30T20:13:52.000Z,28.3
2018-09-30T20:15:52.000Z,28.3
2018-09-30T20:17:52.000Z,28.3
2018-09-30T20:18:52.000Z,28.3
2018-09-30T20:20:36.000Z,28.3
2018-09-30T20:21:52.000Z,28.3
2018-09-30T20:22:52.000Z,28.3
2018-09-30T20:24:52.000Z,28.3
2018-09-30T20:25:52.000Z,28.3
2018-09-30T20:26:52.000Z,28.4
2018-09-30T20:28:36.000Z,28.4
2018-09-30T20:29:52.000Z,28.4
2018-09-30T20:31:52.000Z,28.3
2018-09-30T20:33:52.000Z,28.3
2018-09-30T20:34:52.000Z,28.3
2018-09-30T20:36:52.000Z,28.3
2018-09-30T20:37:52.000Z,28.3
2018-09-30T20:39:52.000Z,28.3
2018-09-30T20:41:52.000Z,28.3
2018-09-30T20:43:52.000Z,28.2
2018-09-30T20:44:52.000Z,28.2
2018-09-30T20:46:52.000Z,28.1
2018-09-30T20:47:52.000Z,28.2
2018-09-30T20:48:52.000Z,28.2
2018-09-30T20:50:52.000Z,28.3
2018-09-30T20:52:52.000Z,28.2
2018-09-30T20:53:52.000Z,28.2